Time;durP1;ratioP1;P1;durP2;ratioP2;P2;SDS_P1;SDS_P2;PMS_P1;PMS_P2;Temp;Humidity;BMP_temperature;BMP_pressure;BME280_temperature;BME280_humidity;BME280_pressure;Samples;Min_cycle;Max_cycle;Signal;HPM_P1;HPM_P2
2022/11/13 00:00:12;;;;;;;8.67;6.20;;;5.50;99.90;5.30;102001.00;;;;4892164;28;109381;-68
2022/11/13 00:02:37;;;;;;;10.10;6.53;;;5.50;99.90;5.30;101995.00;;;;4891343;28;112506;-67
2022/11/13 00:05:04;;;;;;;8.87;6.07;;;5.50;99.90;5.30;101998.00;;;;4891488;28;120852;-66
2022/11/13 00:07:29;;;;;;;9.77;5.57;;;5.50;99.90;5.30;102006.00;;;;4907305;28;105839;-66
2022/11/13 00:09:55;;;;;;;13.73;8.03;;;5.50;99.90;5.40;102004.00;;;;4891833;28;108025;-67
2022/11/13 00:12:21;;;;;;;9.13;6.17;;;5.50;99.90;5.40;101995.00;;;;4896760;28;111415;-66
2022/11/13 00:14:46;;;;;;;7.03;6.33;;;5.50;99.90;5.40;102001.00;;;;4893620;28;122563;-66
2022/11/13 00:17:12;;;;;;;10.33;7.23;;;5.50;99.90;5.40;102008.00;;;;4893907;28;110873;-68
2022/11/13 00:19:37;;;;;;;6.40;5.50;;;5.60;99.90;5.40;101999.00;;;;4893382;28;109653;-66
2022/11/13 00:22:03;;;;;;;10.07;6.83;;;5.50;99.90;5.40;101998.00;;;;4895640;28;112675;-65
2022/11/13 00:24:29;;;;;;;8.20;7.03;;;5.60;99.90;5.40;101984.00;;;;4893712;28;122344;-66
2022/11/13 00:26:54;;;;;;;11.67;6.93;;;5.60;99.90;5.50;101992.00;;;;4902168;28;110265;-66
2022/11/13 00:29:20;;;;;;;9.60;6.77;;;5.60;99.90;5.50;101997.00;;;;4897161;28;108851;-65
2022/11/13 00:31:46;;;;;;;10.80;6.57;;;5.60;99.90;5.50;101983.00;;;;4895699;28;123603;-65
2022/11/13 00:34:12;;;;;;;9.10;5.67;;;5.70;99.90;5.50;101990.00;;;;4895714;28;122724;-65
2022/11/13 00:36:37;;;;;;;9.73;5.90;;;5.60;99.90;5.50;101994.00;;;;4897969;28;92914;-65
2022/11/13 00:39:03;;;;;;;16.57;8.10;;;5.60;99.90;5.50;101979.00;;;;4893657;28;108106;-65
2022/11/13 00:41:29;;;;;;;10.60;6.07;;;5.60;99.90;5.50;101974.00;;;;4889986;28;122845;-65
2022/11/13 00:43:54;;;;;;;11.97;6.40;;;5.60;99.90;5.50;101981.00;;;;4891110;28;122711;-65
2022/11/13 00:46:20;;;;;;;5.30;4.73;;;5.60;99.90;5.50;101977.00;;;;4894866;28;110378;-65
2022/11/13 00:48:45;;;;;;;6.83;5.60;;;5.60;99.90;5.50;101981.00;;;;4890778;28;93750;-65
2022/11/13 00:51:11;;;;;;;6.57;5.67;;;6.00;99.90;5.40;101984.00;;;;4893397;28;122198;-65
2022/11/13 00:53:37;;;;;;;7.40;5.80;;;5.60;99.90;5.50;101983.00;;;;4891898;28;94409;-65
2022/11/13 00:56:03;;;;;;;9.93;6.90;;;5.60;99.90;5.40;101973.00;;;;4892051;28;110702;-64
2022/11/13 00:58:28;;;;;;;9.00;6.47;;;5.60;99.90;5.40;101981.00;;;;4893034;28;93968;-65
2022/11/13 01:00:54;;;;;;;8.70;5.50;;;5.60;99.90;5.40;101970.00;;;;4895292;28;114112;-65
2022/11/13 01:03:20;;;;;;;9.83;6.53;;;5.60;99.90;5.40;101968.00;;;;4896297;28;122359;-67
2022/11/13 01:05:46;;;;;;;9.33;5.27;;;5.50;99.90;5.40;101968.00;;;;4893635;28;109204;-65
2022/11/13 01:08:14;;;;;;;5.67;5.07;;;5.50;99.90;5.40;101959.00;;;;4897180;28;107098;-66
2022/11/13 01:10:45;;;;;;;9.27;6.60;;;5.50;99.90;5.40;101958.00;;;;4895189;28;115058;-65
2022/11/13 01:13:11;;;;;;;11.53;6.53;;;5.60;99.90;5.40;101955.00;;;;4895697;28;93554;-65
2022/11/13 01:15:44;;;;;;;8.93;5.10;;;5.60;99.90;5.40;101942.00;;;;4894962;28;109319;-64
2022/11/13 01:18:10;;;;;;;10.20;5.60;;;5.60;99.90;5.40;101938.00;;;;4896143;28;101230;-65
2022/11/13 01:20:36;;;;;;;7.50;4.80;;;5.60;99.90;5.40;101940.00;;;;4895859;28;122606;-65
2022/11/13 01:23:02;;;;;;;19.30;7.17;;;5.90;99.90;5.50;101944.00;;;;4895483;28;94038;-65
2022/11/13 01:25:29;;;;;;;6.37;5.07;;;5.60;99.90;5.40;101954.00;;;;4893419;28;109991;-65
2022/11/13 01:27:55;;;;;;;6.17;5.57;;;5.60;99.90;5.40;101945.00;;;;4895805;28;93023;-65
2022/11/13 01:30:21;;;;;;;8.73;5.23;;;5.60;99.90;5.40;101952.00;;;;4896102;28;116013;-64
2022/11/13 01:32:46;;;;;;;7.47;5.53;;;5.50;99.90;5.40;101953.00;;;;4899855;28;123351;-65
2022/11/13 01:35:12;;;;;;;12.73;5.53;;;5.60;99.90;5.40;101947.00;;;;4893021;28;110247;-65
2022/11/13 01:37:38;;;;;;;7.27;4.03;;;5.60;99.90;5.40;101944.00;;;;4897131;28;108106;-65
2022/11/13 01:40:04;;;;;;;9.70;7.10;;;5.60;99.90;5.40;101939.00;;;;4903474;28;121683;-64
2022/11/13 01:42:32;;;;;;;10.53;6.07;;;5.60;99.90;5.40;101934.00;;;;4900464;28;111335;-64
2022/11/13 01:45:01;;;;;;;9.20;4.50;;;5.60;99.90;5.40;101929.00;;;;4898807;28;93515;-66
2022/11/13 01:47:27;;;;;;;11.40;7.43;;;5.60;99.90;5.40;101949.00;;;;4894918;28;93962;-64
2022/11/13 01:49:57;;;;;;;9.03;6.47;;;5.50;99.90;5.40;101945.00;;;;4899092;28;93377;-66
2022/11/13 01:52:30;;;;;;;6.13;5.33;;;5.60;99.90;5.40;101926.00;;;;4895498;28;101894;-65
2022/11/13 01:55:07;;;;;;;9.07;6.87;;;5.50;99.90;5.40;101936.00;;;;4895547;28;103321;-65
2022/11/13 01:57:33;;;;;;;7.70;6.73;;;5.50;99.90;5.40;101938.00;;;;4895411;28;102171;-65
2022/11/13 02:00:06;;;;;;;7.07;6.07;;;5.50;99.90;5.40;101928.00;;;;4898967;28;123092;-64
2022/11/13 02:02:32;;;;;;;11.17;7.53;;;5.50;99.90;5.40;101929.00;;;;4896003;28;100999;-65
2022/11/13 02:04:58;;;;;;;11.60;7.30;;;5.60;99.90;5.40;101919.00;;;;4892394;28;109889;-65
2022/11/13 02:07:24;;;;;;;15.80;7.83;;;5.60;99.90;5.40;101918.00;;;;4892680;28;100477;-66
2022/11/13 02:09:56;;;;;;;9.70;6.83;;;5.50;99.90;5.40;101926.00;;;;4901151;28;121504;-64
2022/11/13 02:12:33;;;;;;;12.00;8.73;;;5.60;99.90;5.40;101919.00;;;;4908078;28;94288;-65
2022/11/13 02:15:02;;;;;;;9.23;7.43;;;5.60;99.90;5.40;101913.00;;;;4894453;28;92778;-64
2022/11/13 02:17:46;;;;;;;13.37;8.70;;;5.50;99.90;5.30;101916.00;;;;4893955;28;93884;-64
2022/11/13 02:20:14;;;;;;;13.17;7.70;;;5.50;99.90;5.30;101906.00;;;;4895169;28;115969;-65
2022/11/13 02:23:04;;;;;;;13.23;7.03;;;5.50;99.90;5.30;101900.00;;;;4892276;28;93141;-65
2022/11/13 02:25:32;;;;;;;9.20;6.90;;;5.50;99.90;5.20;101905.00;;;;4909183;28;101235;-65
2022/11/13 02:27:57;;;;;;;10.43;7.47;;;5.40;99.90;5.10;101906.00;;;;4894389;28;92946;-65
2022/11/13 02:30:33;;;;;;;11.00;6.73;;;5.40;99.90;5.10;101886.00;;;;4891426;28;122176;-65
2022/11/13 02:32:59;;;;;;;9.40;7.10;;;5.30;99.90;5.00;101901.00;;;;4897175;28;92906;-65
2022/11/13 02:35:30;;;;;;;8.80;6.80;;;5.20;99.90;4.90;101899.00;;;;4897545;28;92993;-65
2022/11/13 02:38:01;;;;;;;15.43;8.57;;;5.10;99.90;4.90;101899.00;;;;4890854;28;101985;-65
2022/11/13 02:40:28;;;;;;;10.43;8.30;;;5.10;99.90;4.80;101888.00;;;;4895008;28;94199;-64
2022/11/13 02:42:54;;;;;;;9.80;6.37;;;5.00;99.90;4.70;101897.00;;;;4895482;28;93710;-65
2022/11/13 02:45:20;;;;;;;14.77;8.70;;;5.00;99.90;4.70;101885.00;;;;4893560;28;109604;-65
2022/11/13 02:47:45;;;;;;;10.23;7.13;;;4.90;99.90;4.60;101887.00;;;;4895513;28;109057;-65
2022/11/13 02:50:12;;;;;;;8.60;5.53;;;4.90;99.90;4.60;101887.00;;;;4892746;28;122381;-65
2022/11/13 02:52:38;;;;;;;10.83;7.30;;;4.90;99.90;4.60;101881.00;;;;4894207;28;93852;-65
2022/11/13 02:55:04;;;;;;;12.87;7.00;;;4.80;99.90;4.60;101881.00;;;;4895668;28;110365;-64
2022/11/13 02:57:30;;;;;;;11.30;7.70;;;4.80;99.90;4.60;101883.00;;;;4895293;28;102850;-65
2022/11/13 02:59:56;;;;;;;10.50;7.47;;;4.80;99.90;4.50;101882.00;;;;4892769;28;93984;-65
2022/11/13 03:02:21;;;;;;;8.33;7.13;;;4.80;99.90;4.50;101877.00;;;;4895677;28;120522;-65
2022/11/13 03:04:47;;;;;;;10.03;7.07;;;4.70;99.90;4.50;101870.00;;;;4895101;28;110368;-64
2022/11/13 03:07:13;;;;;;;11.20;7.67;;;4.70;99.90;4.50;101875.00;;;;4894644;28;108229;-65
2022/11/13 03:09:40;;;;;;;10.13;7.03;;;4.70;99.90;4.50;101869.00;;;;4894284;28;96043;-65
2022/11/13 03:12:08;;;;;;;7.53;6.43;;;4.70;99.90;4.40;101870.00;;;;4890170;28;103362;-65
2022/11/13 03:14:34;;;;;;;9.70;5.90;;;5.00;99.90;4.40;101871.00;;;;4894807;28;92869;-64
2022/11/13 03:17:00;;;;;;;13.07;7.23;;;5.00;99.90;4.40;101865.00;;;;4895037;28;93019;-64
2022/11/13 03:19:26;;;;;;;12.50;7.90;;;4.20;99.90;4.30;101873.00;;;;4892043;28;113475;-64
2022/11/13 03:21:52;;;;;;;7.93;6.83;;;4.50;99.90;4.30;101862.00;;;;4890497;28;93339;-64
2022/11/13 03:24:18;;;;;;;7.37;6.50;;;4.50;99.90;4.20;101852.00;;;;4891830;28;110561;-64
2022/11/13 03:26:43;;;;;;;11.17;7.93;;;4.50;99.90;4.20;101860.00;;;;4894474;28;109031;-64
2022/11/13 03:29:09;;;;;;;9.27;6.10;;;4.40;99.90;4.20;101853.00;;;;4891013;28;122686;-64
2022/11/13 03:31:35;;;;;;;6.73;5.47;;;4.40;99.90;4.20;101862.00;;;;4891425;28;121352;-64
2022/11/13 03:34:00;;;;;;;13.33;8.50;;;4.30;99.90;4.20;101855.00;;;;4891421;28;111082;-64
2022/11/13 03:36:26;;;;;;;11.27;7.43;;;4.30;99.90;4.10;101847.00;;;;4891552;28;106923;-64
2022/11/13 03:38:52;;;;;;;12.73;8.40;;;4.30;99.90;4.10;101848.00;;;;4892722;28;122418;-64
2022/11/13 03:41:18;;;;;;;10.27;7.30;;;4.30;99.90;4.00;101852.00;;;;4893579;28;93188;-63
2022/11/13 03:43:44;;;;;;;11.80;7.03;;;4.30;99.90;4.00;101848.00;;;;4896251;28;92536;-64
2022/11/13 03:46:10;;;;;;;10.57;6.10;;;4.30;99.90;4.00;101850.00;;;;4896907;28;93456;-65
2022/11/13 03:48:35;;;;;;;12.73;8.47;;;4.20;99.90;4.00;101842.00;;;;4898726;28;94273;-65
2022/11/13 03:51:01;;;;;;;10.00;7.50;;;4.20;99.90;4.00;101840.00;;;;4895317;28;122163;-64
2022/11/13 03:53:27;;;;;;;12.83;7.50;;;4.20;99.90;3.90;101845.00;;;;4894484;28;98864;-64
2022/11/13 03:55:53;;;;;;;9.47;7.37;;;4.20;99.90;3.90;101836.00;;;;4896904;28;109514;-65
2022/11/13 03:58:19;;;;;;;8.93;7.77;;;4.10;99.90;3.90;101830.00;;;;4898139;28;97368;-64
2022/11/13 04:00:47;;;;;;;12.47;8.77;;;3.90;99.90;3.90;101835.00;;;;4899671;28;93221;-64
2022/11/13 04:03:13;;;;;;;12.77;8.13;;;4.10;99.90;3.80;101831.00;;;;4897266;28;92817;-65
2022/11/13 04:05:41;;;;;;;13.87;7.60;;;4.30;99.90;3.80;101831.00;;;;4896652;28;102325;-65
2022/11/13 04:08:06;;;;;;;8.27;7.47;;;4.00;99.90;3.80;101829.00;;;;4900435;28;104878;-64
2022/11/13 04:10:33;;;;;;;9.70;7.37;;;4.00;99.90;3.80;101840.00;;;;4897448;28;122255;-64
2022/11/13 04:12:58;;;;;;;9.30;7.23;;;4.00;99.90;3.70;101834.00;;;;4897872;28;111319;-64
2022/11/13 04:15:24;;;;;;;12.17;8.37;;;4.00;99.90;3.70;101835.00;;;;4894034;28;107833;-65
2022/11/13 04:17:50;;;;;;;12.90;8.10;;;4.00;99.90;3.70;101818.00;;;;4897170;28;123402;-64
2022/11/13 04:20:16;;;;;;;13.90;8.27;;;3.90;99.90;3.70;101819.00;;;;4899023;28;93674;-65
2022/11/13 04:22:42;;;;;;;9.43;7.20;;;3.80;99.90;3.60;101821.00;;;;4896488;28;104206;-64
2022/11/13 04:25:08;;;;;;;9.43;6.93;;;3.80;99.90;3.60;101814.00;;;;4893389;28;107838;-64
2022/11/13 04:27:34;;;;;;;12.80;7.70;;;3.80;99.90;3.60;101816.00;;;;4899355;28;115179;-64
2022/11/13 04:30:00;;;;;;;9.73;6.83;;;3.90;99.90;3.60;101819.00;;;;4892529;28;110880;-65
2022/11/13 04:32:26;;;;;;;10.80;7.97;;;3.80;99.90;3.50;101823.00;;;;4898745;28;92200;-65
2022/11/13 04:34:51;;;;;;;7.30;5.87;;;3.80;99.90;3.50;101819.00;;;;4893465;28;108569;-64
2022/11/13 04:37:17;;;;;;;9.97;7.87;;;3.80;99.90;3.50;101820.00;;;;4897049;28;123494;-65
2022/11/13 04:39:42;;;;;;;11.00;8.03;;;3.80;99.90;3.50;101810.00;;;;4893751;28;122950;-66
2022/11/13 04:44:54;;;;;;;10.00;7.80;;;3.70;99.90;3.50;101809.00;;;;4892139;28;93447;-64
2022/11/13 04:47:20;;;;;;;11.83;7.40;;;3.80;99.90;3.50;101801.00;;;;4898446;28;106601;-65
2022/11/13 04:49:45;;;;;;;12.23;8.13;;;3.80;99.90;3.60;101802.00;;;;4895022;28;121723;-64
2022/11/13 04:52:11;;;;;;;8.20;6.23;;;3.80;99.90;3.60;101802.00;;;;4893450;28;109815;-64
2022/11/13 04:54:37;;;;;;;11.40;6.13;;;3.80;99.90;3.60;101806.00;;;;4891646;28;92866;-65
2022/11/13 04:57:03;;;;;;;8.80;5.40;;;3.80;99.90;3.60;101801.00;;;;4894715;28;121883;-64
2022/11/13 04:59:28;;;;;;;10.13;6.70;;;3.90;99.90;3.60;101801.00;;;;4894425;28;120955;-64
2022/11/13 05:01:54;;;;;;;18.07;6.87;;;3.90;99.90;3.70;101805.00;;;;4895225;28;110120;-65
2022/11/13 05:04:20;;;;;;;12.87;5.10;;;3.80;99.90;3.70;101801.00;;;;4895360;28;106416;-64
2022/11/13 05:06:46;;;;;;;18.90;7.50;;;3.90;99.90;3.80;101805.00;;;;4895331;28;100362;-64
2022/11/13 05:09:12;;;;;;;8.50;6.33;;;4.00;99.90;3.80;101803.00;;;;4892772;28;120915;-64
2022/11/13 05:11:38;;;;;;;7.00;5.73;;;4.00;99.90;3.90;101795.00;;;;4896200;28;104349;-64
2022/11/13 05:14:04;;;;;;;10.50;7.23;;;4.10;99.90;3.90;101791.00;;;;4895595;28;108300;-65
2022/11/13 05:16:30;;;;;;;11.13;7.17;;;4.10;99.90;4.00;101794.00;;;;4894093;28;121390;-65
2022/11/13 05:18:58;;;;;;;11.17;7.93;;;4.20;99.90;4.00;101791.00;;;;4895997;28;122900;-65
2022/11/13 05:21:24;;;;;;;12.03;8.07;;;4.20;99.90;4.10;101795.00;;;;4897038;28;109757;-65
2022/11/13 05:23:50;;;;;;;13.47;7.40;;;4.30;99.90;4.20;101796.00;;;;4894283;28;96108;-65
2022/11/13 05:26:15;;;;;;;15.40;8.27;;;4.30;99.90;4.20;101793.00;;;;4896260;28;124076;-64
2022/11/13 05:28:41;;;;;;;9.90;8.30;;;4.40;99.90;4.30;101793.00;;;;4894894;28;94065;-64
2022/11/13 05:31:15;;;;;;;15.73;10.00;;;4.40;99.90;4.30;101786.00;;;;4898945;28;109717;-65
2022/11/13 05:33:42;;;;;;;13.07;8.50;;;4.50;99.90;4.30;101798.00;;;;4908848;28;94669;-64
2022/11/13 05:36:13;;;;;;;12.70;7.80;;;4.50;99.90;4.40;101796.00;;;;4893680;28;93430;-64
2022/11/13 05:38:41;;;;;;;11.33;7.53;;;4.60;99.90;4.50;101791.00;;;;4892415;28;115722;-65
2022/11/13 05:41:16;;;;;;;10.60;8.67;;;4.60;99.90;4.50;101799.00;;;;4902048;28;92721;-64
2022/11/13 05:43:42;;;;;;;15.77;8.27;;;4.70;99.90;4.60;101794.00;;;;4896733;28;93422;-65
2022/11/13 05:46:16;;;;;;;12.50;9.40;;;4.70;99.90;4.60;101794.00;;;;4893737;28;116935;-64
2022/11/13 05:48:42;;;;;;;17.03;10.10;;;4.80;99.90;4.60;101797.00;;;;4894769;28;98841;-64
2022/11/13 05:51:15;;;;;;;17.77;9.67;;;4.80;99.90;4.60;101802.00;;;;4897418;28;105409;-64
2022/11/13 05:53:42;;;;;;;14.03;10.87;;;4.80;99.90;4.70;101808.00;;;;4896038;28;93982;-64
2022/11/13 05:56:14;;;;;;;17.03;10.67;;;4.80;99.90;4.70;101803.00;;;;4892460;28;93393;-65
2022/11/13 05:58:42;;;;;;;14.57;10.03;;;4.90;99.90;4.70;101813.00;;;;4891985;28;100211;-64
2022/11/13 06:01:16;;;;;;;15.77;10.17;;;4.90;99.90;4.70;101806.00;;;;4894039;28;92869;-64
2022/11/13 06:03:43;;;;;;;15.40;10.47;;;4.90;99.90;4.70;101796.00;;;;4893743;28;100038;-62
2022/11/13 06:06:12;;;;;;;18.90;9.93;;;4.90;99.90;4.70;101799.00;;;;4894090;28;94110;-64
2022/11/13 06:08:38;;;;;;;12.83;9.77;;;4.90;99.90;4.80;101788.00;;;;4893654;28;93152;-64
2022/11/13 06:11:08;;;;;;;13.47;10.83;;;4.90;99.90;4.70;101790.00;;;;4894944;28;92474;-64
2022/11/13 06:13:34;;;;;;;17.03;9.07;;;4.90;99.90;4.70;101797.00;;;;4893327;28;92783;-62
2022/11/13 06:16:06;;;;;;;15.87;10.40;;;5.10;99.90;4.70;101789.00;;;;4891356;28;122700;-64
2022/11/13 06:18:33;;;;;;;17.80;10.77;;;4.90;99.90;4.80;101792.00;;;;4892805;28;94160;-65
2022/11/13 06:21:07;;;;;;;16.30;9.83;;;4.90;99.90;4.70;101786.00;;;;4891961;28;101898;-62
2022/11/13 06:23:35;;;;;;;20.93;11.03;;;4.90;99.90;4.80;101766.00;;;;4892353;28;100957;-63
2022/11/13 06:26:12;;;;;;;14.23;10.37;;;4.90;99.90;4.80;101768.00;;;;4892860;28;105656;-62
2022/11/13 06:28:39;;;;;;;14.67;10.40;;;5.50;99.90;4.80;101772.00;;;;4893492;28;92842;-63
2022/11/13 06:31:07;;;;;;;15.60;10.23;;;4.90;99.90;4.80;101784.00;;;;4892375;28;92920;-63
2022/11/13 06:33:34;;;;;;;15.87;10.27;;;5.00;99.90;4.80;101777.00;;;;4894216;28;92955;-62
2022/11/13 06:36:28;;;;;;;15.67;9.63;;;5.00;99.90;4.80;101785.00;;;;4894128;28;96109;-62
2022/11/13 06:38:54;;;;;;;16.63;10.00;;;5.00;99.90;4.80;101791.00;;;;4892165;28;106715;-62
2022/11/13 06:41:25;;;;;;;14.43;11.37;;;4.90;99.90;4.80;101778.00;;;;4895174;28;100022;-62
2022/11/13 06:43:51;;;;;;;18.83;11.50;;;5.00;99.90;4.80;101783.00;;;;4896107;28;94011;-63
2022/11/13 06:46:23;;;;;;;19.47;10.63;;;5.00;99.90;4.80;101794.00;;;;4894043;28;113762;-66
2022/11/13 06:48:50;;;;;;;19.53;10.73;;;5.00;99.90;4.80;101786.00;;;;4893641;28;93984;-65
2022/11/13 06:51:19;;;;;;;19.27;11.00;;;5.00;99.90;4.90;101788.00;;;;4893091;28;93219;-64
2022/11/13 06:53:46;;;;;;;16.70;10.40;;;5.00;99.90;4.90;101788.00;;;;4888866;28;93059;-62
2022/11/13 06:56:12;;;;;;;13.37;10.23;;;5.10;99.90;4.90;101786.00;;;;4891563;28;93240;-63
2022/11/13 06:58:38;;;;;;;17.70;10.90;;;5.00;99.90;4.90;101777.00;;;;4889548;28;98825;-62
2022/11/13 07:01:13;;;;;;;14.50;11.83;;;5.10;99.90;4.90;101781.00;;;;4885757;28;92529;-63
2022/11/13 07:03:39;;;;;;;19.77;11.57;;;5.10;99.90;4.90;101783.00;;;;4892005;28;101595;-63
2022/11/13 07:06:09;;;;;;;13.97;10.93;;;5.00;99.90;4.90;101782.00;;;;4892216;28;93611;-62
2022/11/13 07:08:34;;;;;;;16.47;10.40;;;5.10;99.90;4.90;101781.00;;;;4890760;28;94380;-62
2022/11/13 07:11:00;;;;;;;16.33;10.27;;;5.00;99.90;4.80;101776.00;;;;4889477;28;93104;-62
2022/11/13 07:13:27;;;;;;;12.10;8.53;;;5.00;99.90;4.80;101769.00;;;;4891862;28;92950;-63
2022/11/13 07:15:53;;;;;;;14.67;9.43;;;5.00;99.90;4.80;101788.00;;;;4892966;28;93135;-63
2022/11/13 07:18:21;;;;;;;14.70;9.13;;;5.00;99.90;4.90;101790.00;;;;4895293;28;122189;-65
2022/11/13 07:20:47;;;;;;;11.67;9.03;;;5.00;99.90;4.90;101784.00;;;;4895875;28;93061;-64
2022/11/13 07:23:13;;;;;;;19.07;10.80;;;5.10;99.90;4.90;101783.00;;;;4894892;28;109803;-64
2022/11/13 07:25:38;;;;;;;15.27;9.73;;;5.10;99.90;4.90;101775.00;;;;4895112;28;120652;-63
2022/11/13 07:28:04;;;;;;;16.23;10.07;;;5.10;99.90;5.00;101780.00;;;;4894342;28;120031;-63
2022/11/13 07:30:30;;;;;;;11.50;9.23;;;5.10;99.90;5.00;101780.00;;;;4891286;28;109038;-62
2022/11/13 07:33:00;;;;;;;15.27;9.83;;;5.20;99.90;5.00;101787.00;;;;4895504;28;108882;-63
2022/11/13 07:35:26;;;;;;;14.03;9.97;;;5.10;99.90;5.00;101800.00;;;;4892014;28;93287;-63
2022/11/13 07:37:55;;;;;;;15.23;9.53;;;5.10;99.90;5.00;101790.00;;;;4891316;28;121506;-63
2022/11/13 07:40:21;;;;;;;17.03;10.30;;;5.20;99.90;5.00;101792.00;;;;4887382;28;93058;-64
2022/11/13 07:42:46;;;;;;;17.93;10.37;;;5.20;99.90;5.00;101795.00;;;;4891658;28;98091;-63
2022/11/13 07:45:12;;;;;;;13.43;10.57;;;5.10;99.90;5.10;101789.00;;;;4890825;28;113013;-65
2022/11/13 07:47:38;;;;;;;15.90;10.20;;;5.20;99.90;5.10;101785.00;;;;4886923;28;120488;-62
2022/11/13 07:50:04;;;;;;;17.00;9.50;;;5.20;99.90;5.10;101790.00;;;;4893119;28;112086;-63
2022/11/13 07:52:30;;;;;;;15.63;9.83;;;5.30;99.90;5.10;101790.00;;;;4890065;28;96877;-64
2022/11/13 07:54:55;;;;;;;15.23;9.97;;;5.30;99.90;5.20;101780.00;;;;4893498;28;124094;-63
2022/11/13 07:57:21;;;;;;;15.60;9.53;;;5.30;99.90;5.20;101784.00;;;;4892521;28;122113;-64
2022/11/13 07:59:48;;;;;;;15.20;10.40;;;5.30;99.90;5.20;101795.00;;;;4896537;28;92949;-62
2022/11/13 08:02:15;;;;;;;13.20;8.93;;;5.70;99.90;5.30;101787.00;;;;4891935;28;101045;-62
2022/11/13 08:04:41;;;;;;;14.00;9.13;;;5.40;99.90;5.30;101788.00;;;;4890920;28;94381;-62
2022/11/13 08:07:07;;;;;;;12.77;9.30;;;5.50;99.90;5.40;101794.00;;;;4894613;28;122066;-64
2022/11/13 08:09:32;;;;;;;12.00;8.50;;;5.50;99.90;5.40;101792.00;;;;4891889;28;109422;-61
2022/11/13 08:11:58;;;;;;;12.27;8.17;;;5.60;99.90;5.50;101790.00;;;;4890254;28;109043;-64
2022/11/13 08:14:24;;;;;;;14.43;9.37;;;5.60;99.90;5.50;101786.00;;;;4895404;28;121426;-63
2022/11/13 08:16:49;;;;;;;9.57;7.67;;;6.00;99.90;5.60;101791.00;;;;4892576;28;121853;-63
2022/11/13 08:19:15;;;;;;;13.77;10.07;;;5.70;99.90;5.70;101795.00;;;;4894168;28;110969;-63
2022/11/13 08:21:41;;;;;;;17.07;9.43;;;5.70;99.90;5.70;101796.00;;;;4893726;28;107524;-63
2022/11/13 08:24:08;;;;;;;13.90;9.13;;;5.80;99.90;5.80;101784.00;;;;4890946;28;122222;-63
2022/11/13 08:26:37;;;;;;;14.13;9.10;;;5.80;99.90;6.00;101790.00;;;;4895024;28;115582;-63
2022/11/13 08:29:03;;;;;;;18.60;10.20;;;6.00;99.90;6.20;101785.00;;;;4890678;28;92938;-62
2022/11/13 08:31:30;;;;;;;12.43;10.20;;;6.30;99.90;6.40;101779.00;;;;4893649;28;107278;-63
2022/11/13 08:33:56;;;;;;;19.83;9.87;;;6.40;99.90;6.60;101780.00;;;;4891734;28;93605;-63
2022/11/13 08:36:21;;;;;;;13.30;9.17;;;6.60;99.90;6.70;101779.00;;;;4892478;28;93588;-64
2022/11/13 08:38:48;;;;;;;12.53;8.30;;;6.70;99.90;6.80;101778.00;;;;4896474;28;110558;-64
2022/11/13 08:41:13;;;;;;;25.07;17.73;;;6.80;99.90;6.80;101773.00;;;;4893541;28;93324;-64
2022/11/13 08:43:39;;;;;;;14.50;9.87;;;6.90;99.90;6.80;101774.00;;;;4889204;28;122345;-63
2022/11/13 08:46:05;;;;;;;14.80;8.40;;;6.90;99.90;6.70;101774.00;;;;4896277;28;93779;-63
2022/11/13 08:48:31;;;;;;;11.83;8.27;;;6.90;99.90;6.70;101777.00;;;;4894486;28;95223;-63
2022/11/13 08:50:56;;;;;;;11.77;7.43;;;6.80;99.90;6.50;101763.00;;;;4894112;28;107865;-62
2022/11/13 08:53:23;;;;;;;20.77;16.47;;;6.70;99.90;6.60;101764.00;;;;4892232;28;123004;-62
2022/11/13 08:55:49;;;;;;;14.27;11.00;;;6.70;99.90;6.70;101758.00;;;;4897357;28;110448;-63
2022/11/13 08:58:15;;;;;;;11.40;7.77;;;6.70;99.90;6.90;101766.00;;;;4894008;28;113065;-64
2022/11/13 09:00:40;;;;;;;11.27;8.07;;;6.90;99.90;7.00;101757.00;;;;4890901;28;108634;-63
2022/11/13 09:03:10;;;;;;;11.77;9.03;;;7.00;99.90;7.10;101757.00;;;;4891064;28;121939;-62
2022/11/13 09:05:36;;;;;;;122.57;90.60;;;7.50;99.90;7.20;101770.00;;;;4894630;28;93050;-63
2022/11/13 09:08:02;;;;;;;65.10;46.93;;;7.20;99.90;7.20;101760.00;;;;4889733;28;110240;-63
2022/11/13 09:10:28;;;;;;;22.13;11.07;;;7.70;99.90;7.30;101762.00;;;;4889224;28;95076;-62
2022/11/13 09:13:00;;;;;;;39.93;25.47;;;7.40;99.90;7.40;101752.00;;;;4891152;28;122185;-64
2022/11/13 09:15:28;;;;;;;16.03;10.40;;;7.40;99.90;7.60;101755.00;;;;4890938;28;93142;-62
2022/11/13 09:17:58;;;;;;;21.17;12.50;;;7.50;99.90;7.90;101754.00;;;;4891596;28;100099;-62
2022/11/13 09:20:25;;;;;;;15.73;9.57;;;7.80;99.90;8.40;101750.00;;;;4892727;28;92913;-63
2022/11/13 09:23:04;;;;;;;13.27;8.50;;;8.20;99.90;8.90;101750.00;;;;4891289;28;93961;-62
2022/11/13 09:25:33;;;;;;;15.07;10.87;;;9.10;99.90;9.30;101748.00;;;;4892265;28;92898;-61
2022/11/13 09:28:00;;;;;;;15.60;8.73;;;9.10;99.90;9.70;101751.00;;;;4892906;28;92219;-62
2022/11/13 09:30:28;;;;;;;10.67;7.67;;;9.50;99.90;10.00;101763.00;;;;4895832;28;92879;-61
2022/11/13 09:32:59;;;;;;;18.07;11.10;;;9.80;99.90;10.20;101759.00;;;;4892091;28;96859;-62
2022/11/13 09:35:35;;;;;;;11.90;9.60;;;10.10;99.90;10.50;101757.00;;;;4889585;28;93937;-59
2022/11/13 09:38:10;;;;;;;14.07;9.60;;;10.30;99.90;10.90;101752.00;;;;4892402;28;93015;-60
2022/11/13 09:40:47;;;;;;;11.67;7.77;;;10.70;99.90;11.10;101756.00;;;;4893677;28;92815;-59
2022/11/13 09:43:39;;;;;;;24.83;17.47;;;11.00;99.90;11.50;101763.00;;;;4893787;28;93553;-60
2022/11/13 09:46:18;;;;;;;62.10;35.67;;;11.30;99.90;11.90;101754.00;;;;4892010;28;100560;-60
2022/11/13 09:49:03;;;;;;;65.90;39.27;;;11.60;99.90;12.10;101754.00;;;;4891757;28;92914;-62
2022/11/13 09:51:32;;;;;;;28.53;17.77;;;11.90;99.90;12.40;101758.00;;;;4895004;28;101281;-62
2022/11/13 09:54:04;;;;;;;13.17;8.97;;;12.10;99.90;12.60;101759.00;;;;4892082;28;115760;-61
2022/11/13 09:56:33;;;;;;;13.80;8.03;;;12.40;99.90;12.60;101748.00;;;;4891454;28;100984;-60
2022/11/13 09:59:24;;;;;;;11.97;7.03;;;12.50;99.90;12.60;101743.00;;;;4891031;28;93188;-61
2022/11/13 10:02:09;;;;;;;12.30;7.27;;;12.50;99.90;12.60;101751.00;;;;4893238;28;93916;-61
2022/11/13 10:04:48;;;;;;;8.30;5.83;;;12.50;99.90;12.50;101745.00;;;;4891028;28;110449;-62
2022/11/13 10:07:43;;;;;;;9.03;6.07;;;12.40;99.90;12.40;101739.00;;;;4891826;28;115984;-62
2022/11/13 10:11:05;;;;;;;11.10;7.40;;;12.40;99.90;12.40;101736.00;;;;4891303;28;93942;-62
2022/11/13 10:13:45;;;;;;;10.13;6.23;;;12.30;99.90;12.60;101733.00;;;;4899268;28;104039;-62
2022/11/13 10:16:30;;;;;;;11.20;6.20;;;12.40;99.90;12.80;101733.00;;;;4890811;28;117227;-61
2022/11/13 10:19:26;;;;;;;8.83;5.73;;;12.60;99.90;13.30;101737.00;;;;4893478;28;93393;-62
2022/11/13 10:22:06;;;;;;;11.47;6.67;;;13.10;99.90;13.60;101735.00;;;;4891855;28;104028;-61
2022/11/13 10:24:42;;;;;;;16.37;12.77;;;13.30;99.90;14.00;101733.00;;;;4890850;28;102308;-61
2022/11/13 10:27:10;;;;;;;119.30;67.23;;;13.60;99.90;14.20;101728.00;;;;4889879;28;92911;-60
2022/11/13 10:29:37;;;;;;;16.73;9.23;;;13.80;99.90;14.40;101720.00;;;;4890737;28;95456;-62
2022/11/13 10:32:30;;;;;;;7.63;5.60;;;14.00;99.90;14.50;101718.00;;;;4888489;28;92990;-62
2022/11/13 10:35:08;;;;;;;13.73;9.27;;;14.20;99.90;14.50;101703.00;;;;4889933;28;92935;-61
2022/11/13 10:37:51;;;;;;;14.53;6.13;;;14.20;99.90;14.60;101706.00;;;;4889923;28;115263;-62
2022/11/13 10:40:33;;;;;;;9.07;5.80;;;14.30;99.90;14.70;101709.00;;;;4891248;28;101426;-59
2022/11/13 10:43:24;;;;;;;7.37;5.10;;;14.40;99.90;15.00;101709.00;;;;4892092;28;93043;-63
2022/11/13 10:46:03;;;;;;;7.50;5.47;;;14.60;99.50;15.10;101712.00;;;;4893380;28;93172;-63
2022/11/13 10:48:35;;;;;;;7.80;4.60;;;14.80;98.70;15.30;101707.00;;;;4891650;28;92515;-63
2022/11/13 10:51:22;;;;;;;6.40;4.07;;;14.90;98.30;15.60;101704.00;;;;4890219;28;115795;-63
2022/11/13 10:53:49;;;;;;;6.93;4.57;;;15.10;97.60;15.70;101698.00;;;;4894485;28;92820;-63
2022/11/13 10:56:31;;;;;;;8.38;4.47;;;15.40;95.50;16.00;101700.00;;;;4889562;28;94010;-63
2022/11/13 10:59:14;;;;;;;8.50;4.63;;;15.60;94.70;16.10;101699.00;;;;4889741;28;99826;-63